Time;durP1;ratioP1;P1;durP2;ratioP2;P2;SDS_P1;SDS_P2;PMS_P1;PMS_P2;Temp;Humidity;BMP_temperature;BMP_pressure;BME280_temperature;BME280_humidity;BME280_pressure;Samples;Min_cycle;Max_cycle;Signal;HPM_P1;HPM_P2
2022/05/23 00:01:43;;;;;;;5.00;2.95;;;537.80;2380.80;;;;;;6155730;23;20005;-64
2022/05/23 00:04:09;;;;;;;8.82;3.35;;;537.80;2380.80;;;;;;6155582;23;20332;-63
2022/05/23 00:06:35;;;;;;;5.75;3.33;;;537.80;2380.80;;;;;;6155374;23;20421;-64
2022/05/23 00:09:00;;;;;;;3.58;2.90;;;537.80;2380.80;;;;;;6129800;23;20012;-68
2022/05/23 00:11:26;;;;;;;7.25;3.42;;;537.80;2380.80;;;;;;6155280;23;20399;-68
2022/05/23 00:13:52;;;;;;;4.28;3.05;;;537.90;2380.80;;;;;;6155660;23;20058;-67
2022/05/23 00:16:23;;;;;;;3.80;2.88;;;537.90;2380.80;;;;;;6155488;23;20425;-65
2022/05/23 00:18:49;;;;;;;;;;;537.80;2380.80;;;;;;6155815;23;20015;-65
2022/05/23 00:21:16;;;;;;;4.15;3.42;;;537.80;2380.80;;;;;;6155670;23;19979;-68
2022/05/23 00:23:42;;;;;;;4.82;3.25;;;537.90;2380.80;;;;;;6155290;23;19998;-67
2022/05/23 00:26:10;;;;;;;6.30;3.38;;;537.80;2406.40;;;;;;6155256;23;20447;-66
2022/05/23 00:28:38;;;;;;;6.22;3.63;;;537.80;2406.40;;;;;;6155705;23;20064;-66
2022/05/23 00:31:05;;;;;;;4.45;3.72;;;537.70;2406.40;;;;;;6155283;23;20014;-66
2022/05/23 00:36:15;;;;;;;5.65;3.40;;;537.60;2406.40;;;;;;6155663;23;20016;-65
2022/05/23 00:38:40;;;;;;;3.95;3.28;;;537.60;2406.40;;;;;;6155460;23;20002;-66
2022/05/23 00:44:07;;;;;;;4.90;3.15;;;537.80;2406.40;;;;;;6154935;23;20017;-65
2022/05/23 00:46:34;;;;;;;5.20;3.15;;;537.70;2406.40;;;;;;6155243;23;20014;-67
2022/05/23 00:49:03;;;;;;;5.10;3.25;;;537.60;2406.40;;;;;;6155266;23;20032;-66
2022/05/23 00:51:29;;;;;;;6.65;3.20;;;;;;;;;;6155322;23;20002;-66
2022/05/23 00:53:57;;;;;;;4.68;3.20;;;;;;;;;;6155460;23;20082;-64
2022/05/23 00:56:24;;;;;;;4.75;3.30;;;;;;;;;;6154878;23;20080;-64
2022/05/23 00:58:52;;;;;;;4.43;3.22;;;;;;;;;;6155396;23;20008;-64
2022/05/23 01:01:21;;;;;;;4.30;3.40;;;;;;;;;;6155288;23;20002;-64
2022/05/23 01:03:47;;;;;;;5.03;4.30;;;;;;;;;;6155282;23;20009;-63
2022/05/23 01:06:13;;;;;;;4.15;3.35;;;;;;;;;;6155234;23;20005;-64
2022/05/23 01:08:40;;;;;;;46.83;9.88;;;;;;;;;;6156019;23;20072;-63
2022/05/23 01:11:06;;;;;;;8.20;4.55;;;;;;;;;;6156888;23;20061;-67
2022/05/23 01:13:33;;;;;;;6.70;3.42;;;;;;;;;;6157002;23;20013;-64
2022/05/23 01:15:59;;;;;;;5.50;3.15;;;;;;;;;;6156976;23;20531;-64
2022/05/23 01:18:25;;;;;;;5.38;3.45;;;538.00;2406.40;;;;;;6156860;23;20036;-65
2022/05/23 01:20:56;;;;;;;4.22;3.38;;;537.80;2406.40;;;;;;6156943;23;20049;-65
2022/05/23 01:23:22;;;;;;;4.55;3.10;;;;;;;;;;6157030;23;20306;-62
2022/05/23 01:25:49;;;;;;;4.25;3.10;;;;;;;;;;6156517;23;20356;-64
2022/05/23 01:28:16;;;;;;;5.82;3.30;;;;;;;;;;6156830;23;20436;-65
2022/05/23 01:30:42;;;;;;;4.15;3.20;;;;;;;;;;6156585;23;20013;-65
2022/05/23 01:33:09;;;;;;;4.72;3.88;;;;;;;;;;6156812;23;20033;-64
2022/05/23 01:35:36;;;;;;;5.97;3.67;;;;;;;;;;6156840;23;19997;-64
2022/05/23 01:38:02;;;;;;;7.15;3.72;;;;;;;;;;6156763;23;20373;-65
2022/05/23 01:40:28;;;;;;;4.57;3.88;;;;;;;;;;6156097;23;20005;-65
2022/05/23 01:42:55;;;;;;;4.78;4.03;;;;;;;;;;6156558;23;20006;-66
2022/05/23 01:45:34;;;;;;;4.93;3.85;;;;;;;;;;6130700;23;20507;-66
2022/05/23 01:48:00;;;;;;;5.78;3.97;;;;;;;;;;6156911;23;20109;-65
2022/05/23 01:50:27;;;;;;;7.22;4.07;;;;;;;;;;6157047;23;20310;-65
2022/05/23 01:52:53;;;;;;;4.47;3.53;;;;;;;;;;6156668;23;20005;-66
2022/05/23 01:55:19;;;;;;;5.88;3.92;;;;;;;;;;6156567;23;20006;-65
2022/05/23 01:57:46;;;;;;;5.00;3.67;;;;;;;;;;6156783;23;20002;-66
2022/05/23 02:02:57;;;;;;;7.03;3.38;;;;;;;;;;6156775;23;20462;-66
2022/05/23 02:05:25;;;;;;;4.80;3.47;;;;;;;;;;6156585;23;20076;-64
2022/05/23 02:07:52;;;;;;;6.68;3.95;;;;;;;;;;6156319;23;20018;-63
2022/05/23 02:10:19;;;;;;;5.05;3.63;;;;;;;;;;6156304;23;20425;-65
2022/05/23 02:12:45;;;;;;;4.47;3.72;;;;;;;;;;6156513;23;20013;-66
2022/05/23 02:15:11;;;;;;;4.07;3.15;;;;;;;;;;6156401;23;20005;-65
2022/05/23 02:17:37;;;;;;;4.07;3.67;;;;;;;;;;6156323;23;20012;-65
2022/05/23 02:20:04;;;;;;;5.40;3.85;;;;;;;;;;6156000;23;20052;-64
2022/05/23 02:22:30;;;;;;;4.75;3.58;;;;;;;;;;6156110;23;20008;-64
2022/05/23 02:24:56;;;;;;;4.78;3.47;;;;;;;;;;6156346;23;20003;-64
2022/05/23 02:27:22;;;;;;;5.30;3.40;;;;;;;;;;6156117;23;20009;-65
2022/05/23 02:29:48;;;;;;;9.18;3.40;;;;;;;;;;6156271;23;20002;-64
2022/05/23 02:32:14;;;;;;;4.97;3.40;;;;;;;;;;6156039;23;20017;-65
2022/05/23 02:34:41;;;;;;;6.22;3.53;;;;;;;;;;6156212;23;20001;-65
2022/05/23 02:37:08;;;;;;;3.72;3.20;;;;;;;;;;6156122;23;20002;-65
2022/05/23 02:39:34;;;;;;;5.82;3.30;;;;;;;;;;6156298;23;20013;-64
2022/05/23 02:42:01;;;;;;;4.53;3.55;;;;;;;;;;6155871;23;20006;-65
2022/05/23 02:44:27;;;;;;;7.18;3.60;;;;;;;;;;6156042;23;20092;-65
2022/05/23 02:46:54;;;;;;;5.65;3.90;;;;;;;;;;6156070;23;20444;-65
2022/05/23 02:49:20;;;;;;;6.50;4.03;;;;;;;;;;6156428;23;20006;-65
2022/05/23 02:51:46;;;;;;;4.55;4.00;;;;;;;;;;6156378;23;20008;-65
2022/05/23 02:54:12;;;;;;;5.10;3.92;;;;;;;;;;6155769;23;20008;-64
2022/05/23 02:56:38;;;;;;;4.57;3.78;;;;;;;;;;6155807;23;20436;-65
2022/05/23 02:59:05;;;;;;;5.25;3.58;;;;;;;;;;6156012;23;19998;-65
2022/05/23 03:01:31;;;;;;;6.07;3.70;;;;;;;;;;6155977;23;20001;-65
2022/05/23 03:03:57;;;;;;;6.50;3.42;;;;;;;;;;6156253;23;20091;-64
2022/05/23 03:06:23;;;;;;;5.85;3.75;;;;;;;;;;6155984;23;20006;-65
2022/05/23 03:08:49;;;;;;;8.07;4.50;;;;;;;;;;6155844;23;20005;-65
2022/05/23 03:11:15;;;;;;;11.52;4.53;;;;;;;;;;6154711;23;20389;-65
2022/05/23 03:13:42;;;;;;;6.80;4.72;;;;;;;;;;6155747;23;20014;-64
2022/05/23 03:16:10;;;;;;;9.15;6.20;;;;;;;;;;6155901;23;20005;-65
2022/05/23 03:18:36;;;;;;;5.70;5.10;;;;;;;;;;6155812;23;20002;-65
2022/05/23 03:26:58;;;;;;;5.72;5.13;;;;;;;;;;6155844;23;20091;-65
2022/05/23 03:27:00;;;;;;;7.63;4.78;;;;;;;;;;6155674;23;20016;-65
2022/05/23 03:29:30;;;;;;;5.60;3.92;;;;;;;;;;6155775;23;20016;-65
2022/05/23 03:31:56;;;;;;;6.82;4.13;;;;;;;;;;6155153;23;20010;-64
2022/05/23 03:34:22;;;;;;;6.70;4.15;;;;;;;;;;6155755;23;20002;-65
2022/05/23 03:36:48;;;;;;;5.85;4.32;;;;;;;;;;6155563;23;20064;-64
2022/05/23 03:39:16;;;;;;;5.32;4.00;;;;;;;;;;6155598;23;20035;-64
2022/05/23 03:41:42;;;;;;;5.35;4.10;;;;;;;;;;6155334;23;20036;-65
2022/05/23 03:44:08;;;;;;;6.03;3.58;;;;;;;;;;6155638;23;20002;-63
2022/05/23 03:46:35;;;;;;;4.90;3.88;;;;;;;;;;6154518;23;20325;-66
2022/05/23 03:49:01;;;;;;;5.07;3.90;;;;;;;;;;6155709;23;20009;-66
2022/05/23 03:51:27;;;;;;;7.18;3.83;;;;;;;;;;6155868;23;20009;-63
2022/05/23 03:53:53;;;;;;;6.25;3.63;;;;;;;;;;6155264;23;20001;-64
2022/05/23 03:56:19;;;;;;;8.75;3.60;;;;;;;;;;6155490;23;20012;-64
2022/05/23 03:58:46;;;;;;;7.50;4.20;;;;;;;;;;6155386;23;20004;-64
2022/05/23 04:01:16;;;;;;;6.05;3.20;;;;;;;;;;6155456;23;20010;-65
2022/05/23 04:03:43;;;;;;;4.67;3.67;;;;;;;;;;6155212;23;19997;-66
2022/05/23 04:06:09;;;;;;;5.20;3.50;;;;;;;;;;6155440;23;20219;-66
2022/05/23 04:08:35;;;;;;;5.35;3.50;;;;;;;;;;6154775;23;20009;-66
2022/05/23 04:11:02;;;;;;;5.55;3.72;;;;;;;;;;6154832;23;20081;-66
2022/05/23 04:13:29;;;;;;;8.57;3.70;;;;;;;;;;6154380;23;20344;-66
2022/05/23 04:15:55;;;;;;;6.18;3.83;;;;;;;;;;6154975;23;20424;-66
2022/05/23 04:18:21;;;;;;;6.40;4.15;;;;;;;;;;6155178;23;20009;-66
2022/05/23 04:20:48;;;;;;;7.85;3.88;;;;;;;;;;6154947;23;20433;-66
2022/05/23 04:23:14;;;;;;;8.07;5.18;;;;;;;;;;6155264;23;20002;-67
2022/05/23 04:25:41;;;;;;;8.48;4.32;;;;;;;;;;6154847;23;20093;-65
2022/05/23 04:28:07;;;;;;;6.43;4.20;;;;;;;;;;6154969;23;20043;-69
2022/05/23 04:30:33;;;;;;;7.70;4.75;;;;;;;;;;6155223;23;20013;-71
2022/05/23 04:35:44;;;;;;;5.65;4.43;;;;;;;;;;6155494;23;20459;-66
2022/05/23 04:38:11;;;;;;;6.40;4.82;;;;;;;;;;6155387;23;20008;-67
2022/05/23 04:40:38;;;;;;;12.55;7.57;;;;;;;;;;6155494;23;20081;-66
2022/05/23 04:43:05;;;;;;;16.70;9.55;;;;;;;;;;6155437;23;20005;-66
2022/05/23 04:45:31;;;;;;;19.42;12.52;;;;;;;;;;6157457;23;20045;-67
2022/05/23 04:50:42;;;;;;;18.27;11.43;;;;;;;;;;6157209;23;20037;-67
2022/05/23 04:53:08;;;;;;;21.48;13.20;;;;;;;;;;6157320;23;20418;-67
2022/05/23 04:55:36;;;;;;;12.32;7.97;;;;;;;;;;6157020;23;20455;-67
2022/05/23 04:58:03;;;;;;;13.77;8.85;;;;;;;;;;6156422;23;19997;-67
2022/05/23 05:00:29;;;;;;;14.57;6.93;;;;;;;;;;6157099;23;19998;-67
2022/05/23 05:02:59;;;;;;;8.20;5.25;;;;;;;;;;6157362;23;20011;-67
2022/05/23 05:05:26;;;;;;;8.15;5.05;;;;;;;;;;6156993;23;20077;-67
2022/05/23 05:07:53;;;;;;;10.10;7.25;;;;;;;;;;6156920;23;20017;-67
2022/05/23 05:10:20;;;;;;;7.57;5.28;;;538.20;2406.40;;;;;;6156952;23;20413;-67
2022/05/23 05:12:46;;;;;;;12.10;5.03;;;538.20;2406.40;;;;;;6157191;23;20002;-67
2022/05/23 05:15:12;;;;;;;7.82;4.60;;;538.00;2406.40;;;;;;6156876;23;20012;-67
2022/05/23 05:17:37;;;;;;;8.43;4.57;;;538.00;2406.40;;;;;;6156682;23;20031;-67
2022/05/23 05:20:04;;;;;;;7.82;4.38;;;538.00;2406.40;;;;;;6157011;23;19997;-67
2022/05/23 05:22:30;;;;;;;8.40;4.00;;;538.10;2406.40;;;;;;6156049;23;20529;-67
2022/05/23 05:24:56;;;;;;;12.98;5.00;;;;;;;;;;6156681;23;19997;-67
2022/05/23 05:27:22;;;;;;;16.55;5.30;;;;;;;;;;6155526;23;20016;-67
2022/05/23 05:29:48;;;;;;;9.07;5.10;;;;;;;;;;6156627;23;20321;-67
2022/05/23 05:32:20;;;;;;;14.80;7.25;;;;;;;;;;6156546;23;20021;-67
2022/05/23 05:34:51;;;;;;;16.23;8.80;;;;;;;;;;6157142;23;20001;-67
2022/05/23 05:37:25;;;;;;;12.93;8.13;;;538.40;2406.40;;;;;;6156924;23;20076;-67
2022/05/23 05:39:53;;;;;;;16.88;7.25;;;538.50;2406.40;;;;;;6156747;23;20006;-67
2022/05/23 05:42:26;;;;;;;16.58;8.13;;;;;;;;;;6157062;23;20059;-67
2022/05/23 05:44:55;;;;;;;14.45;7.38;;;;;;;;;;6156638;23;20005;-68
2022/05/23 05:47:21;;;;;;;12.07;6.20;;;563.50;2432.00;;;;;;6156518;23;20013;-67
2022/05/23 05:49:49;;;;;;;9.25;6.90;;;;;;;;;;6156500;23;20005;-67
2022/05/23 05:52:17;;;;;;;7.43;5.57;;;;;;;;;;6156414;23;20005;-67
2022/05/23 05:54:43;;;;;;;14.30;6.00;;;;;;;;;;6156424;23;20008;-68
2022/05/23 05:57:11;;;;;;;10.70;4.50;;;;;;;;;;6156484;23;20005;-67
2022/05/23 05:59:37;;;;;;;10.63;4.43;;;;;;;;;;6156558;23;20456;-67
2022/05/23 06:02:06;;;;;;;20.70;6.20;;;;;;;;;;6156463;23;20008;-67
2022/05/23 06:04:34;;;;;;;23.15;5.72;;;;;;;;;;6156585;23;20005;-67
2022/05/23 06:12:30;;;;;;;16.15;8.68;;;;;;;;;;6156662;23;20020;-67
2022/05/23 06:14:58;;;;;;;13.32;6.35;;;;;;;;;;6156695;23;20073;-66
2022/05/23 06:17:24;;;;;;;9.75;5.90;;;;;;;;;;6156427;23;20080;-67
2022/05/23 06:19:50;;;;;;;18.52;6.40;;;;;;;;;;6156305;23;20006;-66
2022/05/23 06:22:17;;;;;;;9.20;5.63;;;;;;;;;;6156712;23;20008;-67
2022/05/23 06:24:44;;;;;;;10.75;6.30;;;;;;;;;;6156267;23;20080;-67
2022/05/23 06:27:10;;;;;;;10.23;6.25;;;;;;;;;;6156458;23;20020;-67
2022/05/23 06:29:38;;;;;;;11.05;5.50;;;588.90;2432.00;;;;;;6156472;23;20132;-68
2022/05/23 06:32:04;;;;;;;10.80;5.43;;;;;;;;;;6155914;23;20025;-66
2022/05/23 06:34:31;;;;;;;9.80;6.07;;;;;;;;;;6156227;23;19997;-67
2022/05/23 06:36:57;;;;;;;17.05;6.85;;;;;;;;;;6156009;23;20077;-67
2022/05/23 06:39:25;;;;;;;18.60;7.28;;;;;;;;;;6156609;23;20025;-66
2022/05/23 06:41:51;;;;;;;13.23;7.40;;;;;;;;;;6156216;23;20079;-66
2022/05/23 06:44:17;;;;;;;13.90;7.53;;;;;;;;;;6156000;23;20057;-67
2022/05/23 06:46:43;;;;;;;16.30;7.07;;;;;;;;;;6155899;23;20005;-66
2022/05/23 06:49:10;;;;;;;13.82;7.53;;;;;;;;;;6155921;23;20012;-67
2022/05/23 06:51:36;;;;;;;21.02;7.97;;;589.30;2432.00;;;;;;6156304;23;19997;-66
2022/05/23 06:54:02;;;;;;;18.90;6.88;;;589.30;2432.00;;;;;;6156286;23;20324;-66
2022/05/23 06:56:28;;;;;;;13.00;7.38;;;589.30;2432.00;;;;;;6156190;23;20001;-67
2022/05/23 06:58:55;;;;;;;17.52;7.35;;;589.30;2432.00;;;;;;6156074;23;20440;-67
2022/05/23 07:01:21;;;;;;;21.80;7.93;;;;;;;;;;6156114;23;20429;-65
2022/05/23 07:03:47;;;;;;;13.02;6.80;;;;;;;;;;6155873;23;20036;-66
2022/05/23 07:14:36;;;;;;;12.70;5.82;;;;;;;;;;6155519;23;20337;-67
2022/05/23 07:17:02;;;;;;;15.90;5.95;;;;;;;;;;6155498;23;20001;-64
2022/05/23 07:19:28;;;;;;;16.88;8.10;;;;;;;;;;6155766;23;20080;-65
2022/05/23 07:21:59;;;;;;;21.52;4.80;;;;;;;;;;6155790;23;20409;-66
2022/05/23 07:24:25;;;;;;;7.57;3.58;;;;;;;;;;6155876;23;20347;-65
2022/05/23 07:26:51;;;;;;;11.27;4.82;;;;;;;;;;6155470;23;20013;-65
2022/05/23 07:29:19;;;;;;;8.32;4.50;;;;;;;;;;6155848;23;20091;-65
2022/05/23 07:31:45;;;;;;;20.50;5.13;;;;;;;;;;6155312;23;20017;-67
2022/05/23 07:34:11;;;;;;;9.02;3.90;;;640.10;1971.20;;;;;;6155672;23;20448;-67
2022/05/23 07:36:37;;;;;;;10.30;4.57;;;;;;;;;;6155653;23;20002;-66
2022/05/23 07:39:03;;;;;;;9.27;4.32;;;;;;;;;;6155720;23;20328;-68
2022/05/23 07:41:29;;;;;;;9.50;6.28;;;;;;;;;;6155696;23;20325;-67
2022/05/23 07:43:55;;;;;;;8.40;4.03;;;;;;;;;;6155155;23;20036;-67
2022/05/23 07:46:22;;;;;;;8.98;4.70;;;;;;;;;;6155334;23;19997;-66
2022/05/23 07:48:49;;;;;;;12.10;6.22;;;;;;;;;;6155235;23;20033;-65
2022/05/23 07:51:16;;;;;;;15.00;4.30;;;;;;;;;;6155716;23;20354;-67
2022/05/23 08:01:58;;;;;;;8.35;4.47;;;;;;;;;;6155573;23;20463;-66
2022/05/23 08:04:24;;;;;;;6.40;3.88;;;;;;;;;;6155629;23;20044;-67
2022/05/23 08:06:51;;;;;;;6.32;3.30;;;;;;;;;;6155246;23;20010;-66
2022/05/23 08:09:17;;;;;;;11.73;4.30;;;;;;;;;;6155411;23;20084;-67
2022/05/23 08:11:45;;;;;;;7.10;3.22;;;;;;;;;;6155602;23;20077;-67
2022/05/23 08:14:11;;;;;;;7.68;4.68;;;;;;;;;;6155088;23;20006;-67
2022/05/23 08:16:37;;;;;;;7.40;3.20;;;;;;;;;;6155370;23;20121;-68
2022/05/23 08:19:05;;;;;;;8.13;4.00;;;;;;;;;;6157434;23;20006;-67
2022/05/23 08:21:31;;;;;;;20.27;5.00;;;;;;;;;;6157538;23;20084;-67
2022/05/23 08:23:58;;;;;;;7.63;3.92;;;;;;;;;;6157505;23;20092;-67
2022/05/23 08:26:25;;;;;;;6.28;3.53;;;;;;;;;;6157269;23;20447;-68
2022/05/23 08:28:51;;;;;;;8.13;3.55;;;;;;;;;;6157428;23;20064;-67
2022/05/23 08:31:18;;;;;;;10.25;4.03;;;;;;;;;;6156847;23;20021;-67
2022/05/23 08:33:44;;;;;;;13.77;3.50;;;;;;;;;;6156975;23;20144;-69
2022/05/23 08:36:10;;;;;;;9.55;3.90;;;;;;;;;;6157138;23;20005;-67
2022/05/23 08:38:37;;;;;;;7.82;3.15;;;;;;;;;;6157140;23;20500;-67
2022/05/23 08:41:03;;;;;;;9.18;3.25;;;;;;;;;;6157109;23;20309;-67
2022/05/23 08:43:49;;;;;;;12.02;4.07;;;;;;;;;;6157078;23;20012;-67
2022/05/23 08:46:18;;;;;;;16.40;3.92;;;;;;;;;;6038145;23;20007;-66
2022/05/23 08:49:17;;;;;;;14.18;8.63;;;;;;;;;;6038374;23;20015;-67
2022/05/23 08:51:58;;;;;;;7.65;3.50;;;;;;;;;;5926114;24;20508;-67
2022/05/23 08:54:30;;;;;;;6.75;3.70;;;;;;;;;;5926216;24;20005;-67
2022/05/23 08:56:57;;;;;;;14.35;3.67;;;;;;;;;;5926273;24;20005;-67
2022/05/23 08:59:25;;;;;;;12.13;3.10;;;;;;;;;;5925987;24;20105;-67
2022/05/23 09:01:57;;;;;;;7.85;3.35;;;;;;;;;;5926029;24;20485;-67
2022/05/23 09:04:42;;;;;;;10.38;4.18;;;;;;;;;;5926428;24;20016;-67
2022/05/23 09:07:11;;;;;;;11.95;3.45;;;;;;;;;;5925911;24;20120;-67
2022/05/23 09:09:37;;;;;;;5.97;3.17;;;;;;;;;;5926204;24;20036;-67
2022/05/23 09:12:11;;;;;;;10.15;4.43;;;;;;;;;;5925883;24;20059;-67
2022/05/23 09:14:37;;;;;;;5.30;2.83;;;;;;;;;;5925843;24;20044;-67
2022/05/23 09:17:06;;;;;;;8.48;2.95;;;;;;;;;;5926202;24;20009;-67
2022/05/23 09:19:38;;;;;;;8.23;3.28;;;742.50;1459.20;;;;;;5926064;24;20020;-67
2022/05/23 09:22:17;;;;;;;6.22;3.22;;;742.50;1433.60;;;;;;5926207;24;20523;-67
2022/05/23 09:24:45;;;;;;;3.17;2.60;;;742.60;1484.80;;;;;;6009305;23;20007;-67
2022/05/23 09:27:20;;;;;;;11.38;4.68;;;;;;;;;;6077075;23;20024;-67
2022/05/23 09:29:52;;;;;;;6.32;2.95;;;742.70;1484.80;;;;;;6156223;23;20045;-67
2022/05/23 09:32:19;;;;;;;6.35;3.50;;;;;;;;;;6156349;23;20025;-67
2022/05/23 09:34:48;;;;;;;20.25;5.10;;;;;;;;;;6156548;23;20056;-67
2022/05/23 09:37:20;;;;;;;13.25;3.90;;;;;;;;;;6156289;23;20033;-67
2022/05/23 09:39:50;;;;;;;10.48;7.80;;;;;;;;;;6156550;23;20060;-67
2022/05/23 09:48:24;;;;;;;6.93;3.20;;;742.90;1382.40;;;;;;6156248;23;20044;-67
2022/05/23 09:51:01;;;;;;;8.70;2.90;;;742.80;1382.40;;;;;;6156725;23;20001;-67
2022/05/23 09:53:31;;;;;;;3.75;2.78;;;742.80;1382.40;;;;;;6156273;23;20444;-67
2022/05/23 09:56:31;;;;;;;6.87;2.97;;;742.70;1356.80;;;;;;6156369;23;20076;-67
2022/05/23 09:59:03;;;;;;;5.82;2.90;;;742.90;1331.20;;;;;;6156276;23;20060;-67
2022/05/23 10:01:33;;;;;;;9.23;3.53;;;;;;;;;;6156554;23;20005;-67
2022/05/23 10:04:00;;;;;;;10.00;4.90;;;;;;;;;;6156175;23;20001;-67
2022/05/23 10:06:40;;;;;;;8.20;3.40;;;;;;;;;;6156064;23;20001;-67
2022/05/23 10:09:21;;;;;;;6.07;2.83;;;;;;;;;;6156282;23;20002;-67
2022/05/23 10:11:47;;;;;;;;;;;;;;;;;;6156962;23;20013;-66
2022/05/23 10:14:17;;;;;;;18.52;4.03;;;;;;;;;;6156286;23;19983;-67
2022/05/23 10:16:45;;;;;;;5.40;2.70;;;;;;;;;;6156035;23;20005;-67
2022/05/23 10:19:12;;;;;;;8.18;3.10;;;;;;;;;;6155904;23;20013;-67
2022/05/23 10:21:43;;;;;;;27.05;4.75;;;;;;;;;;6156395;23;20002;-67
2022/05/23 10:24:25;;;;;;;4.60;2.38;;;;;;;;;;6156091;23;20005;-67
2022/05/23 10:27:03;;;;;;;4.30;2.13;;;;;;;;;;6155992;23;20021;-67
2022/05/23 10:29:49;;;;;;;2.72;2.33;;;;;;;;;;6156164;23;19997;-67
2022/05/23 10:32:27;;;;;;;14.57;3.30;;;;;;;;;;6135356;23;20437;-67
2022/05/23 10:34:55;;;;;;;5.65;3.10;;;;;;;;;;6155952;23;20040;-66
2022/05/23 10:37:27;;;;;;;7.55;3.30;;;;;;;;;;6156165;23;19994;-66
2022/05/23 10:42:53;;;;;;;7.45;3.00;;;768.50;1254.40;;;;;;6156625;23;20013;-67
2022/05/23 10:45:24;;;;;;;5.90;3.72;;;768.40;1254.40;;;;;;6156057;23;20014;-67
2022/05/23 10:48:10;;;;;;;11.35;3.45;;;768.40;1331.20;;;;;;6155992;23;20009;-67
2022/05/23 10:50:45;;;;;;;7.97;3.92;;;768.30;1203.20;;;;;;6156139;23;20080;-67
2022/05/23 10:53:37;;;;;;;9.13;3.53;;;768.10;1228.80;;;;;;6155690;23;20005;-66
2022/05/23 10:56:12;;;;;;;9.95;3.70;;;768.40;1203.20;;;;;;6155754;23;20329;-70
2022/05/23 10:59:02;;;;;;;10.82;4.30;;;768.40;1203.20;;;;;;6155904;23;20029;-69
2022/05/23 11:02:05;;;;;;;11.77;3.33;;;768.40;1228.80;;;;;;6155711;23;20001;-71
2022/05/23 11:04:31;;;;;;;7.47;4.03;;;;;;;;;;6037049;23;19999;-69
2022/05/23 11:07:02;;;;;;;7.65;4.63;;;;;;;;;;6037043;23;20011;-69
2022/05/23 11:10:06;;;;;;;7.75;3.45;;;768.20;1254.40;;;;;;6037247;23;20019;-69
2022/05/23 11:12:43;;;;;;;9.50;3.53;;;768.40;1280.00;;;;;;5924963;24;20013;-70
2022/05/23 11:15:27;;;;;;;12.52;6.07;;;768.30;1280.00;;;;;;5925029;24;20017;-70
2022/05/23 11:18:08;;;;;;;11.18;4.00;;;768.40;1305.60;;;;;;5925065;24;20314;-69
2022/05/23 11:20:38;;;;;;;7.65;3.40;;;768.20;1280.00;;;;;;5925118;24;20020;-70
2022/05/23 11:23:04;;;;;;;;;;;;;;;;;;5925556;24;20066;-69
2022/05/23 11:25:32;;;;;;;8.50;3.88;;;;;;;;;;5924995;24;19903;-70
2022/05/23 11:33:45;;;;;;;15.55;4.75;;;;;;;;;;5924994;24;20020;-68
2022/05/23 11:36:15;;;;;;;8.32;5.18;;;;;;;;;;5925225;24;20006;-69
2022/05/23 11:38:45;;;;;;;10.40;5.97;;;742.60;1331.20;;;;;;5925157;24;20019;-69
2022/05/23 11:41:38;;;;;;;7.47;4.40;;;742.50;1356.80;;;;;;5958274;24;20036;-70
2022/05/23 11:44:32;;;;;;;5.22;3.63;;;742.50;1305.60;;;;;;5980214;24;20035;-70
2022/05/23 11:47:21;;;;;;;6.07;3.20;;;742.50;1382.40;;;;;;5990253;23;20004;-68
2022/05/23 11:50:17;;;;;;;12.70;5.25;;;742.60;1356.80;;;;;;6125825;23;20014;-70
2022/05/23 11:53:10;;;;;;;11.25;4.68;;;742.50;1356.80;;;;;;6125666;23;19998;-69
2022/05/23 11:55:51;;;;;;;5.65;3.30;;;742.60;1331.20;;;;;;6037022;23;20015;-70
2022/05/23 11:58:17;;;;;;;56.97;13.60;;;742.80;1305.60;;;;;;6036603;23;20010;-70
2022/05/23 12:01:04;;;;;;;7.03;3.92;;;742.80;1331.20;;;;;;6036567;23;20007;-70
2022/05/23 12:04:08;;;;;;;14.73;7.25;;;742.70;1331.20;;;;;;6036626;23;20003;-69
2022/05/23 12:06:38;;;;;;;8.35;4.45;;;742.80;1356.80;;;;;;6036382;23;20082;-70
2022/05/23 12:09:13;;;;;;;8.03;5.90;;;742.60;1331.20;;;;;;6036694;23;20028;-69
2022/05/23 12:11:41;;;;;;;10.45;5.25;;;742.80;1331.20;;;;;;6036496;23;20238;-69
2022/05/23 12:14:12;;;;;;;13.48;4.97;;;742.90;1331.20;;;;;;6036300;23;20444;-70
2022/05/23 12:16:41;;;;;;;13.68;4.65;;;;;;;;;;6036597;23;20386;-69
2022/05/23 12:19:14;;;;;;;8.52;3.50;;;;;;;;;;6036456;23;20018;-69
2022/05/23 12:21:44;;;;;;;4.85;3.05;;;743.30;1280.00;;;;;;6036697;23;20159;-70
2022/05/23 12:24:13;;;;;;;10.13;4.38;;;;;;;;;;6036850;23;20059;-69
2022/05/23 12:26:40;;;;;;;9.15;4.85;;;;;;;;;;6036483;23;20058;-69
2022/05/23 12:29:24;;;;;;;7.05;4.10;;;;;;;;;;6036569;23;20082;-69
2022/05/23 12:32:28;;;;;;;6.47;5.60;;;743.30;1280.00;;;;;;6053287;23;20052;-70
2022/05/23 12:34:58;;;;;;;8.75;5.05;;;;;;;;;;6097551;23;20435;-69
2022/05/23 12:37:25;;;;;;;8.10;3.60;;;;;;;;;;6125837;23;20073;-69
2022/05/23 12:40:03;;;;;;;16.25;5.53;;;;;;;;;;6126098;23;20033;-69
2022/05/23 12:42:47;;;;;;;6.82;3.10;;;;;;;;;;6126272;23;20318;-68
2022/05/23 12:45:36;;;;;;;14.48;5.47;;;;;;;;;;6125711;23;20010;-69
2022/05/23 12:48:05;;;;;;;28.00;5.32;;;;;;;;;;6125551;23;20014;-69
2022/05/23 12:50:34;;;;;;;8.80;3.63;;;;;;;;;;6125602;23;20001;-70
2022/05/23 12:53:16;;;;;;;11.70;4.13;;;;;;;;;;6125523;23;20117;-69
2022/05/23 12:56:01;;;;;;;9.05;4.18;;;;;;;;;;6125960;23;20006;-70
2022/05/23 12:58:45;;;;;;;12.27;4.65;;;768.30;1305.60;;;;;;6125703;23;20304;-70
2022/05/23 13:01:18;;;;;;;32.03;6.20;;;768.40;1280.00;;;;;;6125529;23;20426;-70
2022/05/23 13:03:50;;;;;;;23.63;10.25;;;768.20;1280.00;;;;;;6125967;23;20010;-68
2022/05/23 13:06:31;;;;;;;20.98;7.68;;;768.30;1280.00;;;;;;6127264;23;19998;-70
2022/05/23 13:08:57;;;;;;;5.03;3.72;;;;;;;;;;6127359;23;20006;-69
2022/05/23 13:11:25;;;;;;;22.52;5.32;;;;;;;;;;6127352;23;19998;-68
2022/05/23 13:13:52;;;;;;;15.20;5.63;;;;;;;;;;6127502;23;20017;-70
2022/05/23 13:16:24;;;;;;;15.80;4.40;;;;;;;;;;6127231;23;20452;-68
2022/05/23 13:27:06;;;;;;;20.70;5.20;;;;;;;;;;6127169;23;20032;-67
2022/05/23 13:29:34;;;;;;;12.80;6.47;;;;;;;;;;6101221;23;20080;-69
2022/05/23 13:32:01;;;;;;;18.40;4.95;;;;;;;;;;6152524;23;20014;-68
2022/05/23 13:34:34;;;;;;;18.23;4.13;;;;;;;;;;6156995;23;20005;-69
2022/05/23 13:37:01;;;;;;;16.20;5.20;;;;;;;;;;6156737;23;20002;-69
2022/05/23 13:39:28;;;;;;;18.65;5.32;;;;;;;;;;6156662;23;20425;-66
2022/05/23 13:41:55;;;;;;;8.65;3.50;;;;;;;;;;6156827;23;20039;-68
2022/05/23 13:44:21;;;;;;;15.95;4.78;;;;;;;;;;6156498;23;20013;-66
2022/05/23 13:46:47;;;;;;;16.50;5.03;;;743.30;1305.60;;;;;;6156599;23;20080;-68
2022/05/23 13:49:52;;;;;;;26.73;4.88;;;;;;;;;;6156584;23;20010;-69
2022/05/23 13:52:23;;;;;;;12.35;4.38;;;;;;;;;;6037861;23;20018;-68
2022/05/23 13:54:54;;;;;;;7.97;4.55;;;;;;;;;;6014246;23;20038;-69
2022/05/23 13:57:20;;;;;;;;;;;;;;;;;;6038103;23;20043;-69
2022/05/23 13:59:49;;;;;;;13.27;3.80;;;;;;;;;;6037611;23;19902;-69
2022/05/23 14:02:20;;;;;;;15.70;4.55;;;;;;;;;;6037651;23;20021;-69
2022/05/23 14:04:47;;;;;;;8.02;3.53;;;;;;;;;;6037802;23;20031;-68
2022/05/23 14:07:15;;;;;;;15.15;5.15;;;;;;;;;;6037424;23;20007;-67
2022/05/23 14:09:48;;;;;;;15.48;5.38;;;743.20;1305.60;;;;;;6037561;23;20049;-69
2022/05/23 14:12:21;;;;;;;20.00;8.40;;;743.10;1305.60;;;;;;6037587;23;20055;-70
2022/05/23 14:14:55;;;;;;;14.60;4.18;;;743.10;1331.20;;;;;;6037524;23;20011;-70
2022/05/23 14:17:43;;;;;;;7.90;3.97;;;743.00;1305.60;;;;;;6037509;23;20332;-70
2022/05/23 14:20:27;;;;;;;10.02;3.60;;;;;;;;;;6037191;23;20498;-69
2022/05/23 14:23:00;;;;;;;14.77;4.18;;;;;;;;;;6091078;23;20056;-70
2022/05/23 14:25:30;;;;;;;35.42;9.35;;;;;;;;;;6156281;23;20433;-70
2022/05/23 14:28:04;;;;;;;22.00;4.43;;;;;;;;;;6156570;23;20015;-69
2022/05/23 14:30:35;;;;;;;94.68;11.25;;;;;;;;;;6155928;23;20012;-68
2022/05/23 14:33:07;;;;;;;11.48;4.15;;;;;;;;;;6156137;23;20036;-70
2022/05/23 14:35:33;;;;;;;6.95;3.70;;;;;;;;;;6156035;23;20008;-70
2022/05/23 14:38:00;;;;;;;17.00;4.03;;;;;;;;;;6156040;23;20006;-69
2022/05/23 14:40:33;;;;;;;14.45;4.20;;;;;;;;;;6156080;23;20006;-70
2022/05/23 14:42:59;;;;;;;10.45;4.00;;;;;;;;;;6156298;23;20013;-69
2022/05/23 14:45:27;;;;;;;16.20;4.72;;;;;;;;;;6155956;23;20083;-69
2022/05/23 14:48:08;;;;;;;5.85;2.97;;;;;;;;;;6155968;23;20052;-69
2022/05/23 14:50:37;;;;;;;4.45;3.65;;;;;;;;;;6129959;23;20492;-69
2022/05/23 14:55:56;;;;;;;9.55;3.80;;;;;;;;;;6155901;23;20056;-70
2022/05/23 15:01:16;;;;;;;12.77;3.85;;;;;;;;;;6155690;23;20096;-69
2022/05/23 15:03:44;;;;;;;10.98;4.18;;;;;;;;;;6156090;23;20002;-70
2022/05/23 15:06:10;;;;;;;7.25;4.35;;;;;;;;;;6155766;23;20005;-69
2022/05/23 15:08:37;;;;;;;11.88;4.28;;;;;;;;;;6155752;23;20047;-67
2022/05/23 15:11:04;;;;;;;6.10;3.38;;;;;;;;;;6155848;23;20009;-69
2022/05/23 15:13:34;;;;;;;9.50;4.57;;;;;;;;;;6156142;23;20032;-71
2022/05/23 15:16:02;;;;;;;16.63;4.03;;;;;;;;;;6156073;23;20048;-70
2022/05/23 15:18:30;;;;;;;16.77;4.53;;;;;;;;;;6156111;23;20025;-66
2022/05/23 15:20:56;;;;;;;5.10;3.05;;;;;;;;;;6155976;23;20001;-68
2022/05/23 15:23:22;;;;;;;8.15;3.83;;;;;;;;;;6155601;23;20433;-67